createdAt,value
2019-04-30T00:01:15.187Z,51.00
2019-04-30T00:04:08.481Z,51.00
2019-04-30T00:06:45.259Z,51.00
2019-04-30T00:09:25.051Z,51.00
2019-04-30T00:12:01.440Z,51.00
2019-04-30T00:14:38.586Z,51.00
2019-04-30T00:17:15.882Z,51.50
2019-04-30T00:19:55.813Z,50.90
2019-04-30T00:22:33.503Z,51.10
2019-04-30T00:25:05.358Z,51.00
2019-04-30T00:27:40.862Z,50.90
2019-04-30T00:30:16.019Z,50.90
2019-04-30T00:32:51.624Z,50.90
2019-04-30T00:35:26.848Z,50.90
2019-04-30T00:38:01.973Z,50.90
2019-04-30T00:40:37.204Z,51.00
2019-04-30T00:43:12.332Z,51.00
2019-04-30T00:45:47.693Z,51.10
2019-04-30T00:48:28.084Z,51.20
2019-04-30T00:50:59.892Z,51.10
2019-04-30T00:53:35.910Z,51.00
2019-04-30T00:56:11.165Z,51.00
2019-04-30T00:58:46.445Z,51.10
2019-04-30T01:01:43.478Z,51.30
2019-04-30T01:04:24.569Z,51.30
2019-04-30T01:07:00.280Z,51.20
2019-04-30T01:09:39.705Z,51.40
2019-04-30T01:12:17.427Z,51.40
2019-04-30T01:14:50.448Z,51.40
2019-04-30T01:17:25.590Z,51.40
2019-04-30T01:20:01.107Z,51.40
2019-04-30T01:22:38.752Z,51.40
2019-04-30T01:25:13.982Z,51.40
2019-04-30T01:27:50.097Z,51.50
2019-04-30T01:30:25.562Z,51.40
2019-04-30T01:33:01.155Z,51.40
2019-04-30T01:35:38.239Z,51.40
2019-04-30T01:38:13.274Z,51.40
2019-04-30T01:40:51.168Z,51.60
2019-04-30T01:43:31.599Z,51.60
2019-04-30T01:46:09.329Z,51.50
2019-04-30T01:48:39.435Z,51.50
2019-04-30T01:51:18.400Z,51.60
2019-04-30T01:53:53.753Z,51.50
2019-04-30T01:56:38.797Z,51.60
2019-04-30T01:59:20.206Z,51.70
2019-04-30T02:01:55.340Z,51.70
2019-04-30T02:04:31.522Z,51.60
2019-04-30T02:07:06.868Z,52.30
2019-04-30T02:09:42.204Z,51.90
2019-04-30T02:12:19.732Z,51.80
2019-04-30T02:14:54.191Z,51.90
2019-04-30T02:17:29.428Z,51.90
2019-04-30T02:20:05.120Z,51.90
2019-04-30T02:22:40.259Z,52.00
2019-04-30T02:25:15.508Z,52.00
2019-04-30T02:27:50.708Z,52.00
2019-04-30T02:30:26.293Z,52.00
2019-04-30T02:33:01.509Z,52.00
2019-04-30T02:35:43.835Z,52.10
2019-04-30T02:38:36.476Z,52.10
2019-04-30T02:41:12.057Z,52.10
2019-04-30T02:43:49.776Z,52.10
2019-04-30T02:46:31.946Z,52.20
2019-04-30T02:49:05.889Z,52.20
2019-04-30T02:51:43.177Z,52.30
2019-04-30T02:54:23.838Z,52.30
2019-04-30T02:57:05.774Z,52.30
2019-04-30T03:00:00.013Z,52.30
2019-04-30T03:02:35.466Z,52.40
2019-04-30T03:05:13.786Z,52.20
2019-04-30T03:07:50.368Z,52.40
2019-04-30T03:10:26.319Z,52.50
2019-04-30T03:13:01.955Z,52.50
2019-04-30T03:15:39.254Z,52.40
2019-04-30T03:18:25.323Z,52.50
2019-04-30T03:21:11.117Z,52.60
2019-04-30T03:23:46.697Z,52.50
2019-04-30T03:26:21.898Z,52.50
2019-04-30T03:28:57.217Z,52.50
2019-04-30T03:31:32.849Z,52.90
2019-04-30T03:34:17.047Z,52.60
2019-04-30T03:36:44.925Z,52.60
2019-04-30T03:39:20.163Z,52.70
2019-04-30T03:41:55.441Z,52.70
2019-04-30T03:44:32.397Z,52.70
2019-04-30T03:47:10.600Z,52.70
2019-04-30T03:49:44.443Z,52.90
2019-04-30T03:52:19.945Z,52.90
2019-04-30T03:54:55.399Z,53.00
2019-04-30T03:57:30.604Z,53.10
2019-04-30T04:00:06.261Z,53.00
2019-04-30T04:02:46.745Z,53.10
2019-04-30T04:05:39.942Z,53.10
2019-04-30T04:08:34.865Z,53.10
2019-04-30T04:11:19.705Z,53.00
2019-04-30T04:13:53.969Z,53.00
2019-04-30T04:16:32.124Z,53.20
2019-04-30T04:19:06.100Z,53.20
2019-04-30T04:21:41.243Z,53.20
2019-04-30T04:24:16.449Z,53.40
2019-04-30T04:26:51.671Z,53.40
2019-04-30T04:29:29.788Z,53.20
2019-04-30T04:32:04.055Z,53.30
2019-04-30T04:34:40.098Z,53.40
2019-04-30T04:37:15.440Z,53.40
2019-04-30T04:39:50.729Z,53.30
2019-04-30T04:42:26.005Z,53.30
2019-04-30T04:45:01.149Z,53.30
2019-04-30T04:47:36.470Z,53.30
2019-04-30T04:50:11.969Z,53.40
2019-04-30T04:52:50.961Z,53.40
2019-04-30T04:55:26.248Z,53.40
2019-04-30T04:58:01.404Z,53.30
2019-04-30T05:00:36.648Z,53.40
2019-04-30T05:03:20.677Z,53.40
2019-04-30T05:05:55.849Z,53.40
2019-04-30T05:08:31.094Z,53.40
2019-04-30T05:11:06.252Z,53.40
2019-04-30T05:13:41.797Z,53.50
2019-04-30T05:16:18.911Z,53.40
2019-04-30T05:18:53.937Z,53.40
2019-04-30T05:21:41.705Z,53.40
2019-04-30T05:24:06.046Z,53.60
2019-04-30T05:26:41.171Z,53.60
2019-04-30T05:29:16.456Z,53.50
2019-04-30T05:31:51.679Z,53.40
2019-04-30T05:34:28.707Z,53.40
2019-04-30T05:37:03.845Z,53.40
2019-04-30T05:39:39.116Z,53.50
2019-04-30T05:42:14.801Z,53.50
2019-04-30T05:44:49.957Z,53.50
2019-04-30T05:47:25.209Z,53.40
2019-04-30T05:50:00.429Z,53.50
2019-04-30T05:52:35.542Z,53.60
2019-04-30T05:55:10.896Z,53.70
2019-04-30T05:57:54.670Z,54.30
2019-04-30T06:00:23.367Z,53.70
2019-04-30T06:02:59.489Z,53.70
2019-04-30T06:05:34.828Z,53.70
2019-04-30T06:08:11.602Z,53.80
2019-04-30T06:11:00.756Z,53.80
2019-04-30T06:13:58.854Z,53.80
2019-04-30T06:16:34.134Z,54.00
2019-04-30T06:19:09.360Z,53.90
2019-04-30T06:21:44.580Z,54.60
2019-04-30T06:24:19.722Z,54.10
2019-04-30T06:26:55.106Z,54.10
2019-04-30T06:29:30.793Z,54.10
2019-04-30T06:32:06.301Z,54.10
2019-04-30T06:34:42.432Z,54.30
2019-04-30T06:37:19.471Z,54.40
2019-04-30T06:39:54.900Z,54.30
2019-04-30T06:42:30.298Z,54.30
2019-04-30T06:45:06.530Z,54.30
2019-04-30T06:47:41.850Z,54.30
2019-04-30T06:50:19.214Z,54.40
2019-04-30T06:52:58.790Z,54.40
2019-04-30T06:55:31.197Z,54.40
2019-04-30T06:58:14.585Z,54.50
2019-04-30T07:00:43.601Z,54.50
2019-04-30T07:03:19.326Z,54.50
2019-04-30T07:05:55.003Z,54.50
2019-04-30T07:08:55.762Z,54.50
2019-04-30T07:11:44.900Z,54.60
2019-04-30T07:14:20.089Z,54.60
2019-04-30T07:16:55.249Z,54.70
2019-04-30T07:19:43.372Z,54.80
2019-04-30T07:22:09.097Z,54.70
2019-04-30T07:24:44.456Z,54.70
2019-04-30T07:27:23.879Z,54.60
2019-04-30T07:29:59.464Z,54.70
2019-04-30T07:32:34.254Z,54.70
2019-04-30T07:35:09.666Z,54.60
2019-04-30T07:37:44.977Z,54.60
2019-04-30T07:40:20.157Z,54.70
2019-04-30T07:42:55.285Z,54.80
2019-04-30T07:45:32.129Z,54.90
2019-04-30T07:48:09.298Z,55.00
2019-04-30T07:50:44.441Z,55.00
2019-04-30T07:53:20.484Z,54.90
2019-04-30T07:55:55.720Z,54.90
2019-04-30T07:58:30.997Z,55.00
2019-04-30T08:01:06.161Z,55.00
2019-04-30T08:04:00.292Z,55.00
2019-04-30T08:06:35.893Z,55.00
2019-04-30T08:09:11.403Z,55.00
2019-04-30T08:11:46.697Z,55.10
2019-04-30T08:14:24.470Z,55.20
2019-04-30T08:16:59.041Z,55.20
2019-04-30T08:19:34.660Z,55.10
2019-04-30T08:22:09.892Z,55.00
2019-04-30T08:24:45.110Z,55.00
2019-04-30T08:27:20.554Z,55.10
2019-04-30T08:29:55.777Z,55.00
2019-04-30T08:32:31.108Z,55.00
2019-04-30T08:35:06.771Z,54.90
2019-04-30T08:37:42.346Z,54.80
2019-04-30T08:40:19.085Z,54.90
2019-04-30T08:42:54.528Z,54.90
2019-04-30T08:45:33.184Z,54.80
2019-04-30T08:48:06.790Z,54.60
2019-04-30T08:50:42.109Z,54.60
2019-04-30T08:53:27.449Z,54.60
2019-04-30T08:55:54.170Z,54.50
2019-04-30T08:58:29.402Z,54.30
2019-04-30T09:01:04.574Z,54.40
2019-04-30T09:03:39.805Z,54.40
2019-04-30T09:06:19.588Z,54.30
2019-04-30T09:09:19.749Z,54.40
2019-04-30T09:11:55.789Z,54.20
2019-04-30T09:14:31.157Z,54.10
2019-04-30T09:17:06.789Z,54.00
2019-04-30T09:19:41.965Z,54.10
2019-04-30T09:22:19.295Z,54.60
2019-04-30T09:24:54.068Z,53.90
2019-04-30T09:27:29.727Z,53.90
2019-04-30T09:30:05.990Z,53.90
2019-04-30T09:32:41.193Z,53.90
2019-04-30T09:35:16.354Z,53.80
2019-04-30T09:37:58.986Z,53.80
2019-04-30T09:40:32.273Z,53.60
2019-04-30T09:43:05.397Z,53.60
2019-04-30T09:45:40.941Z,53.70
2019-04-30T09:48:16.271Z,53.50
2019-04-30T09:50:51.713Z,53.70
2019-04-30T09:53:29.323Z,53.60
2019-04-30T09:56:04.159Z,53.70
2019-04-30T09:58:39.629Z,53.70
2019-04-30T10:01:14.884Z,53.80
2019-04-30T10:03:50.593Z,53.90
2019-04-30T10:06:37.020Z,53.70
2019-04-30T10:09:03.087Z,53.60
2019-04-30T10:11:45.464Z,53.60
2019-04-30T10:14:21.098Z,53.50
2019-04-30T10:17:21.685Z,53.50
2019-04-30T10:19:56.831Z,53.30
2019-04-30T10:22:32.408Z,53.30
2019-04-30T10:25:09.319Z,53.20
2019-04-30T10:27:44.581Z,53.30
2019-04-30T10:30:23.364Z,53.40
2019-04-30T10:32:59.580Z,53.30
2019-04-30T10:35:34.963Z,53.30
2019-04-30T10:38:10.724Z,53.30
2019-04-30T10:40:45.883Z,53.40
2019-04-30T10:43:21.307Z,53.40
2019-04-30T10:45:58.489Z,53.40
2019-04-30T10:48:33.542Z,53.60
2019-04-30T10:51:09.095Z,53.70
2019-04-30T10:53:44.532Z,53.70
2019-04-30T10:56:19.681Z,53.60
2019-04-30T10:58:54.949Z,53.80
2019-04-30T11:01:30.222Z,53.80
2019-04-30T11:04:06.554Z,53.80
2019-04-30T11:06:41.852Z,54.00
2019-04-30T11:09:17.321Z,54.00
2019-04-30T11:11:52.533Z,54.10
2019-04-30T11:14:27.702Z,54.20
2019-04-30T11:17:03.172Z,54.10
2019-04-30T11:19:39.203Z,53.90
2019-04-30T11:22:14.671Z,53.70
2019-04-30T11:24:58.955Z,53.40
2019-04-30T11:27:27.394Z,53.30
2019-04-30T11:30:04.310Z,53.30
2019-04-30T11:32:40.617Z,53.20
2019-04-30T11:35:18.504Z,53.10
2019-04-30T11:37:54.068Z,52.90
2019-04-30T11:40:37.181Z,53.50
2019-04-30T11:43:09.537Z,52.80
2019-04-30T11:46:46.554Z,52.70
2019-04-30T11:49:21.902Z,53.00
2019-04-30T11:51:57.225Z,52.50
2019-04-30T11:54:32.710Z,52.40
2019-04-30T11:57:08.893Z,52.40
2019-04-30T11:59:44.161Z,52.40
2019-04-30T12:02:42.355Z,52.70
2019-04-30T12:05:20.559Z,52.70
2019-04-30T12:08:06.760Z,52.80
2019-04-30T12:10:57.670Z,53.00
2019-04-30T12:13:33.788Z,53.60
2019-04-30T12:16:09.074Z,52.70
2019-04-30T12:18:44.315Z,52.50
2019-04-30T12:21:19.521Z,52.40
2019-04-30T12:23:54.680Z,51.90
2019-04-30T12:26:29.828Z,51.80
2019-04-30T12:29:05.436Z,51.50
2019-04-30T12:31:40.893Z,51.40
2019-04-30T12:34:16.059Z,51.00
2019-04-30T12:36:51.659Z,51.00
2019-04-30T12:39:28.420Z,51.00
2019-04-30T12:42:03.760Z,51.50
2019-04-30T12:44:40.111Z,50.70
2019-04-30T12:47:15.406Z,50.60
2019-04-30T12:49:57.197Z,50.00
2019-04-30T12:52:54.124Z,50.00
2019-04-30T12:55:49.025Z,50.00
2019-04-30T12:58:24.331Z,48.50
2019-04-30T13:00:59.974Z,48.20
2019-04-30T13:03:35.261Z,48.60
2019-04-30T13:06:11.295Z,48.80
2019-04-30T13:08:49.826Z,48.70
2019-04-30T13:11:24.964Z,48.90
2019-04-30T13:14:01.112Z,49.00
2019-04-30T13:16:36.701Z,49.50
2019-04-30T13:19:12.253Z,48.30
2019-04-30T13:21:47.429Z,47.80
2019-04-30T13:24:22.814Z,48.00
2019-04-30T13:26:59.486Z,48.60
2019-04-30T13:29:41.393Z,47.80
2019-04-30T13:32:29.225Z,47.60
2019-04-30T13:35:00.720Z,47.10
2019-04-30T13:37:46.573Z,47.50
2019-04-30T13:40:48.444Z,47.50
2019-04-30T13:43:42.522Z,47.50
2019-04-30T13:46:18.566Z,47.30
2019-04-30T13:48:53.869Z,46.90
2019-04-30T13:51:29.476Z,46.90
2019-04-30T13:54:04.929Z,46.60
2019-04-30T13:56:40.226Z,46.30
2019-04-30T13:59:15.471Z,46.00
2019-04-30T14:01:50.689Z,46.10
2019-04-30T14:04:50.892Z,46.10
2019-04-30T14:07:43.891Z,46.10
2019-04-30T14:10:19.544Z,46.40
2019-04-30T14:12:57.768Z,45.70
2019-04-30T14:15:33.373Z,45.80
2019-04-30T14:18:09.357Z,45.90
2019-04-30T14:20:44.818Z,45.80
2019-04-30T14:23:20.060Z,44.60
2019-04-30T14:25:56.724Z,44.70
2019-04-30T14:28:32.670Z,44.50
2019-04-30T14:31:07.845Z,44.50
2019-04-30T14:33:43.463Z,44.80
2019-04-30T14:36:19.409Z,44.20
2019-04-30T14:38:55.022Z,44.10
2019-04-30T14:41:32.504Z,43.30
2019-04-30T14:44:13.519Z,43.30
2019-04-30T14:47:01.509Z,42.80
2019-04-30T14:50:02.045Z,43.20
2019-04-30T14:52:37.057Z,43.40
2019-04-30T14:55:30.229Z,42.50
2019-04-30T14:58:20.515Z,42.50
2019-04-30T15:01:19.386Z,42.00
2019-04-30T15:03:54.712Z,43.40
2019-04-30T15:06:29.867Z,43.20
2019-04-30T15:09:06.789Z,43.20
2019-04-30T15:11:42.109Z,42.60
2019-04-30T15:14:17.313Z,42.60
2019-04-30T15:16:52.457Z,42.30
2019-04-30T15:19:27.728Z,41.80
2019-04-30T15:22:04.037Z,42.50
2019-04-30T15:24:39.534Z,42.10
2019-04-30T15:27:14.751Z,41.80
2019-04-30T15:29:57.206Z,42.10
2019-04-30T15:32:28.608Z,41.70
2019-04-30T15:35:04.095Z,41.50
2019-04-30T15:37:40.836Z,41.50
2019-04-30T15:40:18.853Z,41.60
2019-04-30T15:42:55.990Z,41.40
2019-04-30T15:45:31.265Z,41.00
2019-04-30T15:48:08.464Z,40.70
2019-04-30T15:50:43.401Z,40.70
2019-04-30T15:53:19.340Z,40.40
2019-04-30T15:55:54.696Z,40.50
2019-04-30T15:58:31.759Z,40.30
2019-04-30T16:01:09.050Z,40.40
2019-04-30T16:03:45.870Z,40.10
2019-04-30T16:06:21.468Z,39.70
2019-04-30T16:08:58.613Z,39.30
2019-04-30T16:11:40.110Z,38.90
2019-04-30T16:14:33.738Z,38.70
2019-04-30T16:17:20.724Z,39.50
2019-04-30T16:19:56.021Z,39.70
2019-04-30T16:23:03.267Z,40.70
2019-04-30T16:25:39.091Z,41.60
2019-04-30T16:28:14.381Z,41.90
2019-04-30T16:32:09.297Z,42.30
2019-04-30T16:34:44.653Z,42.60
2019-04-30T16:37:20.263Z,43.00
2019-04-30T16:39:55.642Z,43.60
2019-04-30T16:42:30.855Z,43.70
2019-04-30T16:45:15.304Z,44.10
2019-04-30T16:47:50.523Z,44.40
2019-04-30T16:50:25.765Z,44.50
2019-04-30T16:57:10.303Z,44.90
2019-04-30T16:59:45.648Z,45.10
2019-04-30T17:02:22.382Z,45.30
2019-04-30T17:05:13.654Z,45.40
2019-04-30T17:08:54.307Z,45.60
2019-04-30T17:11:50.594Z,45.70
2019-04-30T17:14:25.949Z,45.90
2019-04-30T17:17:01.157Z,45.80
2019-04-30T17:19:43.056Z,46.10
2019-04-30T17:22:18.307Z,46.80
2019-04-30T17:24:54.004Z,46.30
2019-04-30T17:27:29.458Z,46.50
2019-04-30T17:30:05.193Z,46.50
2019-04-30T17:32:40.359Z,47.30
2019-04-30T17:35:16.469Z,46.70
2019-04-30T17:37:52.097Z,46.80
2019-04-30T17:40:29.131Z,46.90
2019-04-30T17:43:04.486Z,46.90
2019-04-30T17:45:39.801Z,47.00
2019-04-30T17:48:15.142Z,47.20
2019-04-30T17:50:50.777Z,47.30
2019-04-30T17:53:26.080Z,47.30
2019-04-30T17:56:01.232Z,47.30
2019-04-30T17:58:36.398Z,47.50
2019-04-30T18:01:12.323Z,47.60
2019-04-30T18:03:48.797Z,47.80
2019-04-30T18:06:24.473Z,47.80
2019-04-30T18:09:00.099Z,47.80
2019-04-30T18:11:35.669Z,47.90
2019-04-30T18:14:10.969Z,47.90
2019-04-30T18:16:46.167Z,48.10
2019-04-30T18:19:39.034Z,48.10
2019-04-30T18:22:20.769Z,48.20
2019-04-30T18:25:04.804Z,48.10
2019-04-30T18:27:46.601Z,48.40
2019-04-30T18:30:24.387Z,48.40
2019-04-30T18:32:59.688Z,48.30
2019-04-30T18:35:34.994Z,48.40
2019-04-30T18:38:10.512Z,48.30
2019-04-30T18:40:45.740Z,48.30
2019-04-30T18:43:20.901Z,48.40
2019-04-30T18:45:56.122Z,48.50
2019-04-30T18:48:31.480Z,48.50
2019-04-30T18:51:23.750Z,48.50
2019-04-30T18:53:46.800Z,48.40
2019-04-30T18:56:20.861Z,48.40
2019-04-30T18:58:56.141Z,48.40
2019-04-30T19:01:31.691Z,48.60
2019-04-30T19:04:08.844Z,48.70
2019-04-30T19:06:43.888Z,48.50
2019-04-30T19:09:35.074Z,48.50
2019-04-30T19:12:35.714Z,48.70
2019-04-30T19:15:48.531Z,48.60
2019-04-30T19:18:25.364Z,48.70
2019-04-30T19:21:00.912Z,48.80
2019-04-30T19:23:36.099Z,48.80
2019-04-30T19:26:11.334Z,49.00
2019-04-30T19:28:49.308Z,48.90
2019-04-30T19:31:25.176Z,49.00
2019-04-30T19:34:00.522Z,49.40
2019-04-30T19:36:37.637Z,49.10
2019-04-30T19:39:13.428Z,49.10
2019-04-30T19:41:49.104Z,49.00
2019-04-30T19:44:24.381Z,49.00
2019-04-30T19:46:59.616Z,49.10
2019-04-30T19:49:34.973Z,49.20
2019-04-30T19:52:11.852Z,49.40
2019-04-30T19:54:48.788Z,49.40
2019-04-30T19:57:24.548Z,49.40
2019-04-30T19:59:59.805Z,49.50
2019-04-30T20:02:35.218Z,49.60
2019-04-30T20:05:10.561Z,49.70
2019-04-30T20:07:46.108Z,49.60
2019-04-30T20:10:21.470Z,49.70
2019-04-30T20:12:58.746Z,49.60
2019-04-30T20:15:34.034Z,49.80
2019-04-30T20:18:39.099Z,49.80
2019-04-30T20:21:26.225Z,50.10
2019-04-30T20:24:01.212Z,50.20
2019-04-30T20:27:04.088Z,50.30
2019-04-30T20:29:30.631Z,50.50
2019-04-30T20:36:14.273Z,51.00
2019-04-30T20:39:17.994Z,50.90
2019-04-30T20:41:54.562Z,51.30
2019-04-30T20:44:44.058Z,51.10
2019-04-30T20:47:25.484Z,51.40
2019-04-30T20:50:00.930Z,51.40
2019-04-30T20:52:59.556Z,51.30
2019-04-30T20:55:35.025Z,51.40
2019-04-30T20:58:10.356Z,51.50
2019-04-30T21:00:45.645Z,51.50
2019-04-30T21:03:21.002Z,51.60
2019-04-30T21:05:56.225Z,51.60
2019-04-30T21:08:31.780Z,51.60
2019-04-30T21:11:06.916Z,52.30
2019-04-30T21:13:42.086Z,51.60
2019-04-30T21:16:17.310Z,51.40
2019-04-30T21:18:52.478Z,51.50
2019-04-30T21:21:28.716Z,51.30
2019-04-30T21:24:04.280Z,51.30
2019-04-30T21:26:39.563Z,51.60
2019-04-30T21:33:27.283Z,51.50
2019-04-30T21:36:13.458Z,51.40
2019-04-30T21:38:56.001Z,51.50
2019-04-30T21:41:31.768Z,51.50
2019-04-30T21:44:06.913Z,51.80
2019-04-30T21:46:42.537Z,51.90
2019-04-30T21:49:18.115Z,51.80
2019-04-30T21:52:01.891Z,51.80
2019-04-30T21:54:39.369Z,52.00
2019-04-30T21:57:22.336Z,51.90
2019-04-30T21:59:58.785Z,51.80
2019-04-30T22:02:40.669Z,51.80
2019-04-30T22:05:16.122Z,51.70
2019-04-30T22:07:51.293Z,51.60
2019-04-30T22:14:49.053Z,51.60
2019-04-30T22:17:24.305Z,51.70
2019-04-30T22:19:59.691Z,51.80
2019-04-30T22:22:35.001Z,51.90
2019-04-30T22:25:10.521Z,51.90
2019-04-30T22:36:19.429Z,51.80
2019-04-30T22:39:12.475Z,51.90
2019-04-30T22:42:08.858Z,52.10
2019-04-30T22:44:46.914Z,52.00
2019-04-30T22:48:00.650Z,52.10
2019-04-30T22:50:32.617Z,52.10
2019-04-30T22:53:39.192Z,52.00
2019-04-30T22:56:14.372Z,52.00
2019-04-30T22:58:50.528Z,52.10
2019-04-30T23:01:53.728Z,52.10
2019-04-30T23:05:01.863Z,52.20
2019-04-30T23:07:37.128Z,52.10
2019-04-30T23:10:12.376Z,52.00
2019-04-30T23:13:08.505Z,52.10
2019-04-30T23:15:43.755Z,52.10
2019-04-30T23:18:19.365Z,52.00
2019-04-30T23:22:01.456Z,51.70
2019-04-30T23:28:40.724Z,52.00
2019-04-30T23:31:15.960Z,52.00
2019-04-30T23:33:51.097Z,52.10
2019-04-30T23:36:26.257Z,52.70
2019-04-30T23:39:01.507Z,52.60
2019-04-30T23:42:22.409Z,52.00
2019-04-30T23:44:59.673Z,52.10
2019-04-30T23:47:36.120Z,52.10
2019-04-30T23:50:12.573Z,52.10
2019-04-30T23:52:47.799Z,52.10
2019-04-30T23:56:22.736Z,52.00
2019-04-30T23:59:01.316Z,52.00
